createdAt,value
2022-08-31T00:00:18.756Z,4.60
2022-08-31T00:03:04.702Z,4.10
2022-08-31T00:05:31.455Z,4.60
2022-08-31T00:07:58.222Z,3.93
2022-08-31T00:10:32.828Z,4.83
2022-08-31T00:13:04.905Z,3.97
2022-08-31T00:15:35.249Z,4.33
2022-08-31T00:18:03.248Z,4.23
2022-08-31T00:20:34.365Z,4.80
2022-08-31T00:23:13.936Z,4.70
2022-08-31T00:25:45.704Z,4.60
2022-08-31T00:28:15.349Z,4.97
2022-08-31T00:30:43.172Z,4.07
2022-08-31T00:33:11.587Z,4.40
2022-08-31T00:35:41.931Z,4.90
2022-08-31T00:38:10.660Z,4.63
2022-08-31T00:40:44.753Z,5.07
2022-08-31T00:43:33.423Z,4.87
2022-08-31T00:46:00.291Z,4.33
2022-08-31T00:48:27.246Z,4.70
2022-08-31T00:50:54.371Z,4.37
2022-08-31T00:53:21.345Z,4.80
2022-08-31T00:55:48.243Z,5.03
2022-08-31T00:58:15.110Z,4.43
2022-08-31T01:00:45.917Z,4.50
2022-08-31T01:03:13.005Z,4.80
2022-08-31T01:05:40.181Z,4.80
2022-08-31T01:08:07.740Z,4.77
2022-08-31T01:10:40.718Z,4.53
2022-08-31T01:13:09.055Z,4.90
2022-08-31T01:15:37.874Z,4.60
2022-08-31T01:18:06.495Z,4.80
2022-08-31T01:21:16.103Z,5.17
2022-08-31T01:23:45.753Z,4.63
2022-08-31T01:26:18.742Z,4.47
2022-08-31T01:28:45.564Z,5.37
2022-08-31T01:31:43.636Z,4.60
2022-08-31T01:34:10.879Z,5.40
2022-08-31T01:36:40.730Z,5.10
2022-08-31T01:39:10.734Z,4.93
2022-08-31T01:41:43.563Z,4.50
2022-08-31T01:44:17.144Z,5.30
2022-08-31T01:46:45.405Z,4.67
2022-08-31T01:49:15.449Z,4.70
2022-08-31T01:51:43.659Z,5.30
2022-08-31T01:54:11.265Z,4.83
2022-08-31T01:56:43.337Z,5.27
2022-08-31T01:59:13.361Z,5.33
2022-08-31T02:01:45.942Z,4.80
2022-08-31T02:04:15.354Z,5.20
2022-08-31T02:06:46.570Z,5.10
2022-08-31T02:09:15.198Z,4.60
2022-08-31T02:11:42.765Z,4.73
2022-08-31T02:14:10.657Z,4.90
2022-08-31T02:16:39.279Z,4.93
2022-08-31T02:19:07.572Z,4.83
2022-08-31T02:21:36.713Z,5.43
2022-08-31T02:24:05.570Z,5.27
2022-08-31T02:26:32.732Z,4.83
2022-08-31T02:28:59.545Z,5.20
2022-08-31T02:31:26.708Z,5.07
2022-08-31T02:33:53.535Z,4.83
2022-08-31T02:36:20.307Z,5.40
2022-08-31T02:38:47.202Z,4.73
2022-08-31T02:41:14.119Z,4.60
2022-08-31T02:43:40.918Z,4.53
2022-08-31T02:46:07.717Z,5.07
2022-08-31T02:48:35.618Z,4.80
2022-08-31T02:51:09.753Z,4.93
2022-08-31T02:53:38.131Z,4.83
2022-08-31T02:56:07.927Z,5.07
2022-08-31T02:58:36.713Z,5.30
2022-08-31T03:01:04.172Z,5.17
2022-08-31T03:03:31.412Z,5.50
2022-08-31T03:05:58.243Z,5.30
2022-08-31T03:08:25.884Z,5.40
2022-08-31T03:10:54.837Z,5.37
2022-08-31T03:13:21.879Z,5.53
2022-08-31T03:15:48.750Z,5.23
2022-08-31T03:18:15.547Z,4.80
2022-08-31T03:20:42.310Z,5.10
2022-08-31T03:23:09.289Z,4.90
2022-08-31T03:25:38.137Z,5.13
2022-08-31T03:28:07.331Z,5.17
2022-08-31T03:30:37.005Z,4.73
2022-08-31T03:33:03.899Z,4.90
2022-08-31T03:35:31.719Z,4.97
2022-08-31T03:37:58.937Z,5.00
2022-08-31T03:40:25.901Z,4.40
2022-08-31T03:42:52.790Z,4.50
2022-08-31T03:45:20.051Z,4.77
2022-08-31T03:47:46.879Z,4.23
2022-08-31T03:50:15.690Z,4.23
2022-08-31T03:52:42.647Z,4.90
2022-08-31T03:55:11.167Z,4.73
2022-08-31T03:57:38.417Z,4.57
2022-08-31T04:00:07.482Z,4.57
2022-08-31T04:02:38.980Z,4.23
2022-08-31T04:05:07.757Z,4.67
2022-08-31T04:07:42.368Z,4.60
2022-08-31T04:10:14.304Z,4.30
2022-08-31T04:12:41.694Z,4.80
2022-08-31T04:15:10.295Z,4.50
2022-08-31T04:17:37.425Z,4.77
2022-08-31T04:20:08.031Z,4.80
2022-08-31T04:22:34.781Z,4.90
2022-08-31T04:25:01.646Z,4.37
2022-08-31T04:27:29.185Z,4.30
2022-08-31T04:29:56.431Z,4.20
2022-08-31T04:32:23.259Z,4.90
2022-08-31T04:34:56.148Z,4.43
2022-08-31T04:37:23.480Z,4.33
2022-08-31T04:39:52.181Z,4.80
2022-08-31T04:42:19.458Z,4.93
2022-08-31T04:44:46.412Z,4.40
2022-08-31T04:47:13.185Z,4.80
2022-08-31T04:49:40.026Z,4.77
2022-08-31T04:52:08.223Z,4.57
2022-08-31T04:54:35.123Z,5.10
2022-08-31T04:57:01.933Z,5.07
2022-08-31T04:59:35.421Z,4.73
2022-08-31T05:02:03.855Z,4.93
2022-08-31T05:04:31.774Z,5.07
2022-08-31T05:06:58.915Z,4.73
2022-08-31T05:09:25.906Z,4.67
2022-08-31T05:11:55.063Z,4.90
2022-08-31T05:14:23.609Z,4.70
2022-08-31T05:16:51.252Z,4.30
2022-08-31T05:19:19.519Z,4.70
2022-08-31T05:21:46.963Z,4.17
2022-08-31T05:24:20.312Z,4.77
2022-08-31T05:26:51.287Z,4.70
2022-08-31T05:29:22.808Z,4.93
2022-08-31T05:31:52.632Z,4.40
2022-08-31T05:34:21.912Z,4.80
2022-08-31T05:36:54.962Z,4.50
2022-08-31T05:39:23.883Z,4.57
2022-08-31T05:41:51.076Z,4.87
2022-08-31T05:44:21.080Z,4.70
2022-08-31T05:46:54.758Z,4.63
2022-08-31T05:49:28.413Z,4.00
2022-08-31T05:51:57.060Z,4.47
2022-08-31T05:54:23.865Z,4.20
2022-08-31T05:56:50.674Z,4.97
2022-08-31T05:59:17.742Z,4.43
2022-08-31T06:01:44.687Z,4.37
2022-08-31T06:04:12.218Z,4.10
2022-08-31T06:06:39.442Z,4.30
2022-08-31T06:09:07.935Z,4.37
2022-08-31T06:11:38.227Z,4.23
2022-08-31T06:14:05.896Z,4.20
2022-08-31T06:16:33.839Z,3.80
2022-08-31T06:19:03.304Z,3.80
2022-08-31T06:21:33.518Z,3.70
2022-08-31T06:24:03.179Z,3.77
2022-08-31T06:26:34.238Z,4.07
2022-08-31T06:29:05.529Z,4.30
2022-08-31T06:31:46.436Z,3.80
2022-08-31T06:34:16.263Z,3.90
2022-08-31T06:36:43.630Z,3.60
2022-08-31T06:39:12.332Z,3.70
2022-08-31T06:41:41.541Z,4.00
2022-08-31T06:44:12.503Z,3.90
2022-08-31T06:46:41.430Z,3.70
2022-08-31T06:49:08.893Z,3.43
2022-08-31T06:51:38.338Z,3.43
2022-08-31T06:54:28.445Z,3.63
2022-08-31T06:56:58.776Z,3.40
2022-08-31T06:59:29.093Z,3.50
2022-08-31T07:02:01.327Z,3.63
2022-08-31T07:04:34.605Z,3.30
2022-08-31T07:07:01.840Z,3.53
2022-08-31T07:09:29.091Z,3.60
2022-08-31T07:11:55.900Z,3.70
2022-08-31T07:14:26.957Z,3.80
2022-08-31T07:16:57.882Z,3.77
2022-08-31T07:19:26.458Z,3.53
2022-08-31T07:21:57.290Z,3.57
2022-08-31T07:24:30.789Z,3.60
2022-08-31T07:27:04.271Z,3.60
2022-08-31T07:29:40.093Z,3.33
2022-08-31T07:32:09.512Z,3.40
2022-08-31T07:34:37.687Z,3.30
2022-08-31T07:37:24.490Z,3.07
2022-08-31T07:40:11.059Z,3.40
2022-08-31T07:42:45.230Z,3.17
2022-08-31T07:45:23.081Z,3.10
2022-08-31T07:47:52.654Z,3.33
2022-08-31T07:50:21.242Z,2.90
2022-08-31T07:52:53.966Z,3.37
2022-08-31T07:55:23.830Z,3.23
2022-08-31T07:57:54.638Z,3.10
2022-08-31T08:00:27.080Z,3.30
2022-08-31T08:02:54.854Z,3.13
2022-08-31T08:05:28.738Z,3.53
2022-08-31T08:08:11.897Z,2.97
2022-08-31T08:10:46.746Z,3.37
2022-08-31T08:13:19.506Z,3.10
2022-08-31T08:15:47.868Z,3.13
2022-08-31T08:18:14.670Z,3.20
2022-08-31T08:20:41.623Z,2.93
2022-08-31T08:23:15.021Z,3.40
2022-08-31T08:25:46.323Z,2.90
2022-08-31T08:31:07.471Z,2.60
2022-08-31T08:33:35.696Z,3.07
2022-08-31T08:36:07.547Z,3.10
2022-08-31T08:38:38.825Z,2.93
2022-08-31T08:41:12.849Z,2.70
2022-08-31T08:43:52.793Z,2.87
2022-08-31T08:46:39.968Z,2.50
2022-08-31T08:49:17.985Z,3.10
2022-08-31T08:51:50.539Z,3.00
2022-08-31T08:54:29.913Z,3.27
2022-08-31T08:56:57.891Z,2.73
2022-08-31T08:59:24.950Z,2.83
2022-08-31T09:02:01.947Z,2.90
2022-08-31T09:05:00.947Z,3.73
2022-08-31T09:08:15.069Z,3.10
2022-08-31T09:11:02.751Z,3.07
2022-08-31T09:13:43.689Z,2.87
2022-08-31T09:16:25.980Z,3.03
2022-08-31T09:19:01.951Z,2.83
2022-08-31T09:21:35.807Z,2.90
2022-08-31T09:24:16.937Z,3.30
2022-08-31T09:26:59.353Z,3.30
2022-08-31T09:29:30.709Z,2.87
2022-08-31T09:32:23.092Z,2.93
2022-08-31T09:35:24.466Z,2.70
2022-08-31T09:38:09.791Z,2.70
2022-08-31T09:40:48.501Z,3.00
2022-08-31T09:43:27.077Z,3.07
2022-08-31T09:46:08.711Z,2.80
2022-08-31T09:48:58.512Z,2.93
2022-08-31T09:51:29.813Z,2.93
2022-08-31T09:54:37.826Z,2.70
2022-08-31T09:57:09.777Z,2.50
2022-08-31T09:59:49.227Z,2.73
2022-08-31T10:02:22.958Z,3.00
2022-08-31T10:04:54.314Z,2.73
2022-08-31T10:07:43.134Z,2.80
2022-08-31T10:10:18.790Z,2.50
2022-08-31T10:13:10.093Z,3.00
2022-08-31T10:15:52.270Z,2.67
2022-08-31T10:18:50.728Z,2.90
2022-08-31T10:21:31.584Z,2.67
2022-08-31T10:24:20.817Z,2.90
2022-08-31T10:27:12.895Z,2.70
2022-08-31T10:29:52.788Z,2.90
2022-08-31T10:32:56.084Z,2.50
2022-08-31T10:35:37.152Z,2.60
2022-08-31T10:38:38.730Z,2.90
2022-08-31T10:41:28.966Z,2.80
2022-08-31T10:44:17.876Z,2.73
2022-08-31T10:46:45.602Z,3.17
2022-08-31T10:49:12.668Z,2.77
2022-08-31T10:51:53.067Z,2.63
2022-08-31T10:55:13.008Z,2.80
2022-08-31T10:58:05.341Z,2.87
2022-08-31T11:01:02.349Z,3.10
2022-08-31T11:04:08.712Z,3.23
2022-08-31T11:06:45.285Z,2.77
2022-08-31T11:09:23.485Z,2.53
2022-08-31T11:12:06.811Z,2.93
2022-08-31T11:15:09.707Z,3.00
2022-08-31T11:18:03.126Z,2.83
2022-08-31T11:21:09.449Z,2.57
2022-08-31T11:24:00.050Z,2.90
2022-08-31T11:26:57.574Z,3.10
2022-08-31T11:29:46.226Z,2.63
2022-08-31T11:32:21.207Z,3.00
2022-08-31T11:34:58.483Z,3.17
2022-08-31T11:37:52.739Z,2.93
2022-08-31T11:40:41.368Z,2.87
2022-08-31T11:43:36.132Z,2.87
2022-08-31T11:46:26.908Z,3.00
2022-08-31T11:48:54.802Z,3.10
2022-08-31T11:51:42.581Z,2.77
2022-08-31T11:54:26.626Z,3.00
2022-08-31T11:56:56.639Z,3.20
2022-08-31T11:59:34.076Z,3.10
2022-08-31T12:02:19.711Z,3.47
2022-08-31T12:04:47.373Z,2.90
2022-08-31T12:07:28.911Z,2.90
2022-08-31T12:10:02.083Z,2.87
2022-08-31T12:12:43.923Z,2.70
2022-08-31T12:15:34.560Z,3.00
2022-08-31T12:18:18.573Z,2.63
2022-08-31T12:21:20.881Z,3.00
2022-08-31T12:24:05.242Z,2.60
2022-08-31T12:27:09.182Z,3.20
2022-08-31T12:29:41.203Z,2.70
2022-08-31T12:32:31.279Z,3.27
2022-08-31T12:35:26.570Z,2.97
2022-08-31T12:38:26.178Z,3.13
2022-08-31T12:40:58.846Z,3.00
2022-08-31T12:43:49.120Z,2.60
2022-08-31T12:47:09.677Z,3.07
2022-08-31T12:50:08.165Z,3.07
2022-08-31T12:53:08.519Z,3.40
2022-08-31T12:56:12.774Z,3.10
2022-08-31T12:59:02.516Z,3.10
2022-08-31T13:01:29.723Z,3.00
2022-08-31T13:04:03.146Z,2.90
2022-08-31T13:06:34.185Z,3.40
2022-08-31T13:09:02.347Z,3.27
2022-08-31T13:11:42.527Z,3.20
2022-08-31T13:14:24.881Z,3.00
2022-08-31T13:17:06.002Z,3.00
2022-08-31T13:19:35.129Z,3.07
2022-08-31T13:22:07.055Z,3.47
2022-08-31T13:24:41.771Z,2.90
2022-08-31T13:27:30.154Z,2.80
2022-08-31T13:30:12.972Z,3.00
2022-08-31T13:32:42.178Z,3.23
2022-08-31T13:35:15.022Z,3.30
2022-08-31T13:38:04.648Z,3.13
2022-08-31T13:40:37.282Z,2.97
2022-08-31T13:43:08.830Z,3.17
2022-08-31T13:45:58.476Z,3.03
2022-08-31T13:48:35.149Z,3.13
2022-08-31T13:51:18.355Z,3.20
2022-08-31T13:53:54.062Z,2.90
2022-08-31T13:56:54.811Z,3.00
2022-08-31T13:59:24.214Z,2.93
2022-08-31T14:02:27.727Z,3.80
2022-08-31T14:05:07.874Z,3.27
2022-08-31T14:07:57.710Z,2.93
2022-08-31T14:10:32.342Z,3.20
2022-08-31T14:13:13.788Z,3.13
2022-08-31T14:15:56.344Z,2.90
2022-08-31T14:18:27.279Z,3.00
2022-08-31T14:21:23.012Z,2.83
2022-08-31T14:24:02.869Z,2.90
2022-08-31T14:26:43.899Z,2.73
2022-08-31T14:29:16.450Z,3.23
2022-08-31T14:31:52.137Z,3.03
2022-08-31T14:34:35.309Z,3.13
2022-08-31T14:37:19.593Z,3.00
2022-08-31T14:39:50.556Z,2.90
2022-08-31T14:42:29.315Z,3.10
2022-08-31T14:45:18.214Z,3.03
2022-08-31T14:47:50.668Z,3.00
2022-08-31T14:50:23.345Z,2.90
2022-08-31T14:52:58.300Z,2.73
2022-08-31T14:55:28.610Z,2.57
2022-08-31T14:58:05.068Z,2.60
2022-08-31T15:00:35.406Z,2.83
2022-08-31T15:03:02.949Z,2.73
2022-08-31T15:05:29.833Z,3.00
2022-08-31T15:07:57.074Z,3.37
2022-08-31T15:10:26.301Z,3.07
2022-08-31T15:12:53.605Z,2.80
2022-08-31T15:15:20.768Z,2.83
2022-08-31T15:17:51.242Z,2.50
2022-08-31T15:20:20.070Z,2.87
2022-08-31T15:22:48.091Z,2.97
2022-08-31T15:25:16.907Z,2.60
2022-08-31T15:27:44.368Z,3.30
2022-08-31T15:30:14.567Z,2.70
2022-08-31T15:32:46.638Z,2.97
2022-08-31T15:35:23.244Z,2.90
2022-08-31T15:37:58.574Z,3.10
2022-08-31T15:40:35.500Z,2.83
2022-08-31T15:43:09.278Z,2.90
2022-08-31T15:45:36.311Z,2.63
2022-08-31T15:48:22.474Z,3.27
2022-08-31T15:51:00.073Z,2.70
2022-08-31T15:53:30.413Z,2.97
2022-08-31T15:56:05.539Z,2.70
2022-08-31T15:58:34.797Z,2.83
2022-08-31T16:01:02.224Z,3.20
2022-08-31T16:03:35.275Z,2.50
2022-08-31T16:06:03.990Z,2.93
2022-08-31T16:08:30.798Z,2.73
2022-08-31T16:10:57.558Z,2.50
2022-08-31T16:13:24.378Z,2.60
2022-08-31T16:15:52.349Z,3.10
2022-08-31T16:18:22.010Z,3.20
2022-08-31T16:20:50.222Z,2.67
2022-08-31T16:23:17.828Z,2.90
2022-08-31T16:25:48.219Z,2.97
2022-08-31T16:28:21.011Z,2.67
2022-08-31T16:30:51.333Z,3.20
2022-08-31T16:33:18.684Z,2.87
2022-08-31T16:35:45.688Z,2.90
2022-08-31T16:38:13.344Z,3.07
2022-08-31T16:40:42.836Z,2.60
2022-08-31T16:43:10.457Z,2.70
2022-08-31T16:45:41.413Z,2.53
2022-08-31T16:48:30.056Z,2.97
2022-08-31T16:51:01.813Z,2.70
2022-08-31T16:53:28.728Z,2.90
2022-08-31T16:55:57.506Z,3.20
2022-08-31T16:58:47.758Z,3.10
2022-08-31T17:01:14.580Z,2.80
2022-08-31T17:03:49.475Z,2.80
2022-08-31T17:06:17.278Z,2.90
2022-08-31T17:08:45.441Z,3.03
2022-08-31T17:11:22.409Z,2.73
2022-08-31T17:13:59.136Z,2.90
2022-08-31T17:16:34.595Z,2.47
2022-08-31T17:19:08.256Z,2.70
2022-08-31T17:21:50.441Z,2.80
2022-08-31T17:24:28.490Z,2.60
2022-08-31T17:27:01.174Z,2.87
2022-08-31T17:29:34.245Z,3.30
2022-08-31T17:32:14.168Z,2.73
2022-08-31T17:34:43.010Z,3.37
2022-08-31T17:37:15.123Z,3.33
2022-08-31T17:39:44.819Z,3.10
2022-08-31T17:42:15.073Z,3.03
2022-08-31T17:44:44.762Z,3.20
2022-08-31T17:47:11.671Z,3.40
2022-08-31T17:49:43.246Z,3.30
2022-08-31T17:52:13.016Z,3.10
2022-08-31T17:54:42.923Z,2.90
2022-08-31T17:57:13.975Z,3.63
2022-08-31T17:59:48.274Z,3.87
2022-08-31T18:02:21.151Z,3.17
2022-08-31T18:04:48.758Z,3.00
2022-08-31T18:07:16.145Z,3.10
2022-08-31T18:09:46.631Z,3.47
2022-08-31T18:12:17.960Z,3.60
2022-08-31T18:14:45.165Z,3.30
2022-08-31T18:17:17.875Z,3.37
2022-08-31T18:19:45.452Z,3.10
2022-08-31T18:22:15.593Z,3.47
2022-08-31T18:24:43.912Z,3.67
2022-08-31T18:27:14.996Z,3.17
2022-08-31T18:29:43.058Z,3.40
2022-08-31T18:32:10.737Z,3.80
2022-08-31T18:34:47.253Z,3.30
2022-08-31T18:37:17.415Z,3.10
2022-08-31T18:40:06.442Z,3.50
2022-08-31T18:42:56.968Z,3.20
2022-08-31T18:45:26.241Z,3.50
2022-08-31T18:48:23.243Z,3.50
2022-08-31T18:50:49.103Z,3.30
2022-08-31T18:53:29.492Z,3.10
2022-08-31T18:56:09.368Z,3.93
2022-08-31T18:58:37.651Z,3.47
2022-08-31T19:01:10.157Z,3.97
2022-08-31T19:03:39.987Z,3.67
2022-08-31T19:06:08.284Z,3.53
2022-08-31T19:08:35.178Z,3.83
2022-08-31T19:11:06.969Z,3.67
2022-08-31T19:13:34.380Z,3.87
2022-08-31T19:16:10.769Z,3.87
2022-08-31T19:18:43.904Z,3.70
2022-08-31T19:21:26.890Z,4.07
2022-08-31T19:23:54.395Z,3.47
2022-08-31T19:26:37.209Z,3.80
2022-08-31T19:29:09.147Z,3.97
2022-08-31T19:31:40.770Z,3.90
2022-08-31T19:34:08.718Z,3.87
2022-08-31T19:36:38.850Z,3.77
2022-08-31T19:39:10.822Z,4.00
2022-08-31T19:41:49.182Z,3.57
2022-08-31T19:44:17.567Z,4.40
2022-08-31T19:46:52.437Z,4.17
2022-08-31T19:49:19.670Z,3.77
2022-08-31T19:51:51.794Z,3.90
2022-08-31T19:54:21.673Z,3.83
2022-08-31T19:56:48.552Z,3.67
2022-08-31T19:59:19.919Z,3.70
2022-08-31T20:01:52.876Z,3.80
2022-08-31T20:04:24.374Z,3.67
2022-08-31T20:06:52.329Z,4.03
2022-08-31T20:09:22.353Z,4.00
2022-08-31T20:11:56.675Z,4.00
2022-08-31T20:14:24.097Z,3.97
2022-08-31T20:16:52.071Z,3.80
2022-08-31T20:19:24.660Z,3.53
2022-08-31T20:21:54.719Z,3.00
2022-08-31T20:24:25.604Z,3.33
2022-08-31T20:27:09.005Z,4.20
2022-08-31T20:29:39.577Z,3.57
2022-08-31T20:32:07.828Z,3.60
2022-08-31T20:34:34.918Z,3.60
2022-08-31T20:37:02.441Z,3.53
2022-08-31T20:39:31.728Z,3.83
2022-08-31T20:42:00.075Z,3.40
2022-08-31T20:44:34.599Z,3.63
2022-08-31T20:47:25.358Z,3.70
2022-08-31T20:49:59.457Z,3.60
2022-08-31T20:52:34.732Z,3.70
2022-08-31T20:55:04.463Z,3.43
2022-08-31T20:57:36.302Z,3.43
2022-08-31T21:00:05.959Z,3.90
2022-08-31T21:02:34.190Z,3.60
2022-08-31T21:05:20.696Z,3.40
2022-08-31T21:07:48.907Z,3.30
2022-08-31T21:10:15.719Z,3.20
2022-08-31T21:12:45.714Z,3.80
2022-08-31T21:15:12.528Z,3.40
2022-08-31T21:17:40.561Z,3.13
2022-08-31T21:20:08.450Z,3.40
2022-08-31T21:22:35.334Z,3.70
2022-08-31T21:25:03.653Z,3.17
2022-08-31T21:27:31.079Z,3.30
2022-08-31T21:29:57.946Z,3.60
2022-08-31T21:32:24.697Z,3.33
2022-08-31T21:34:56.421Z,3.43
2022-08-31T21:37:23.251Z,3.50
2022-08-31T21:39:53.417Z,3.10
2022-08-31T21:42:22.626Z,3.30
2022-08-31T21:44:50.358Z,3.53
2022-08-31T21:47:17.134Z,3.60
2022-08-31T21:49:44.891Z,3.47
2022-08-31T21:52:12.467Z,3.30
2022-08-31T21:54:44.559Z,3.27
2022-08-31T21:57:12.826Z,3.57
2022-08-31T21:59:39.574Z,3.50
2022-08-31T22:02:11.246Z,3.30
2022-08-31T22:04:42.450Z,3.57
2022-08-31T22:07:11.090Z,3.17
2022-08-31T22:09:37.998Z,3.33
2022-08-31T22:12:07.285Z,3.37
2022-08-31T22:14:37.875Z,3.67
2022-08-31T22:17:06.821Z,3.17
2022-08-31T22:19:37.917Z,3.40
2022-08-31T22:22:11.964Z,3.60
2022-08-31T22:24:40.388Z,3.43
2022-08-31T22:27:10.934Z,3.73
2022-08-31T22:29:40.257Z,3.37
2022-08-31T22:32:15.041Z,3.80
2022-08-31T22:34:42.859Z,3.27
2022-08-31T22:37:11.612Z,3.37
2022-08-31T22:39:42.246Z,3.80
2022-08-31T22:42:09.305Z,3.47
2022-08-31T22:44:37.529Z,3.67
2022-08-31T22:47:04.905Z,3.50
2022-08-31T22:49:32.083Z,3.80
2022-08-31T22:51:58.932Z,3.23
2022-08-31T22:54:26.178Z,3.60
2022-08-31T22:56:53.955Z,3.40
2022-08-31T22:59:28.056Z,3.77
2022-08-31T23:02:03.206Z,3.67
2022-08-31T23:04:33.699Z,3.50
2022-08-31T23:07:03.457Z,3.67
2022-08-31T23:09:32.003Z,3.60
2022-08-31T23:12:02.068Z,3.47
2022-08-31T23:14:30.120Z,3.60
2022-08-31T23:17:00.639Z,3.60
2022-08-31T23:19:36.695Z,3.33
2022-08-31T23:22:09.086Z,3.63
2022-08-31T23:24:41.106Z,3.27
2022-08-31T23:27:10.484Z,3.53
2022-08-31T23:29:47.933Z,3.43
2022-08-31T23:32:18.859Z,3.37
2022-08-31T23:34:49.649Z,3.60
2022-08-31T23:37:17.705Z,3.47
2022-08-31T23:39:46.643Z,3.30
2022-08-31T23:42:16.311Z,3.47
2022-08-31T23:44:48.450Z,3.47
2022-08-31T23:47:21.225Z,3.33
2022-08-31T23:49:51.256Z,3.50
2022-08-31T23:52:22.704Z,3.47
2022-08-31T23:54:57.627Z,4.10
2022-08-31T23:57:33.297Z,3.03
